sensor_id;sensor_type;location;lat;lon;timestamp;temperature;humidity
70708;SHT30;58277;47.316;18.908;2023-05-07T00:00:15;15.31;86.92
70708;SHT30;58277;47.316;18.908;2023-05-07T00:02:40;15.29;87.22
70708;SHT30;58277;47.316;18.908;2023-05-07T00:05:04;15.31;87.00
70708;SHT30;58277;47.316;18.908;2023-05-07T00:07:27;15.28;87.28
70708;SHT30;58277;47.316;18.908;2023-05-07T00:09:50;15.22;87.41
70708;SHT30;58277;47.316;18.908;2023-05-07T00:12:13;15.21;87.61
70708;SHT30;58277;47.316;18.908;2023-05-07T00:14:36;15.14;87.65
70708;SHT30;58277;47.316;18.908;2023-05-07T00:16:59;15.24;87.48
70708;SHT30;58277;47.316;18.908;2023-05-07T00:19:22;15.19;87.27
70708;SHT30;58277;47.316;18.908;2023-05-07T00:21:44;15.14;87.08
70708;SHT30;58277;47.316;18.908;2023-05-07T00:24:07;15.26;86.93
70708;SHT30;58277;47.316;18.908;2023-05-07T00:26:30;15.29;86.60
70708;SHT30;58277;47.316;18.908;2023-05-07T00:28:53;15.28;86.18
70708;SHT30;58277;47.316;18.908;2023-05-07T00:31:21;15.26;85.96
70708;SHT30;58277;47.316;18.908;2023-05-07T00:33:44;15.31;85.86
70708;SHT30;58277;47.316;18.908;2023-05-07T00:36:06;15.28;85.88
70708;SHT30;58277;47.316;18.908;2023-05-07T00:38:29;15.22;85.74
70708;SHT30;58277;47.316;18.908;2023-05-07T00:40:52;15.15;85.97
70708;SHT30;58277;47.316;18.908;2023-05-07T00:43:15;15.09;86.03
70708;SHT30;58277;47.316;18.908;2023-05-07T00:45:37;15.05;86.32
70708;SHT30;58277;47.316;18.908;2023-05-07T00:48:02;14.87;86.84
70708;SHT30;58277;47.316;18.908;2023-05-07T00:50:26;14.77;87.12
70708;SHT30;58277;47.316;18.908;2023-05-07T00:52:49;14.61;87.79
70708;SHT30;58277;47.316;18.908;2023-05-07T00:55:11;14.71;87.60
70708;SHT30;58277;47.316;18.908;2023-05-07T00:57:39;14.70;87.65
70708;SHT30;58277;47.316;18.908;2023-05-07T01:00:04;14.66;87.71
70708;SHT30;58277;47.316;18.908;2023-05-07T01:02:27;14.77;87.30
70708;SHT30;58277;47.316;18.908;2023-05-07T01:04:50;14.77;87.34
70708;SHT30;58277;47.316;18.908;2023-05-07T01:07:13;14.74;87.34
70708;SHT30;58277;47.316;18.908;2023-05-07T01:09:36;14.70;87.33
70708;SHT30;58277;47.316;18.908;2023-05-07T01:11:59;14.60;87.58
70708;SHT30;58277;47.316;18.908;2023-05-07T01:14:22;14.53;87.85
70708;SHT30;58277;47.316;18.908;2023-05-07T01:16:45;14.60;87.52
70708;SHT30;58277;47.316;18.908;2023-05-07T01:19:09;14.64;87.38
70708;SHT30;58277;47.316;18.908;2023-05-07T01:21:35;14.56;87.34
70708;SHT30;58277;47.316;18.908;2023-05-07T01:24:00;14.59;87.34
70708;SHT30;58277;47.316;18.908;2023-05-07T01:26:25;14.68;87.04
70708;SHT30;58277;47.316;18.908;2023-05-07T01:28:49;14.56;87.31
70708;SHT30;58277;47.316;18.908;2023-05-07T01:31:12;14.39;87.68
70708;SHT30;58277;47.316;18.908;2023-05-07T01:33:37;14.26;87.87
70708;SHT30;58277;47.316;18.908;2023-05-07T01:36:00;14.19;88.10
70708;SHT30;58277;47.316;18.908;2023-05-07T01:38:46;14.23;88.03
70708;SHT30;58277;47.316;18.908;2023-05-07T01:41:11;14.23;87.84
70708;SHT30;58277;47.316;18.908;2023-05-07T01:43:35;14.30;87.72
70708;SHT30;58277;47.316;18.908;2023-05-07T01:45:58;14.29;87.61
70708;SHT30;58277;47.316;18.908;2023-05-07T01:48:22;14.32;87.42
70708;SHT30;58277;47.316;18.908;2023-05-07T01:50:47;14.33;87.08
70708;SHT30;58277;47.316;18.908;2023-05-07T01:53:10;14.29;87.05
70708;SHT30;58277;47.316;18.908;2023-05-07T01:55:33;14.30;86.85
70708;SHT30;58277;47.316;18.908;2023-05-07T01:57:56;14.34;86.72
70708;SHT30;58277;47.316;18.908;2023-05-07T02:00:19;14.29;86.47
70708;SHT30;58277;47.316;18.908;2023-05-07T02:02:43;14.29;86.46
70708;SHT30;58277;47.316;18.908;2023-05-07T02:05:16;14.28;86.57
70708;SHT30;58277;47.316;18.908;2023-05-07T02:07:43;14.20;86.55
70708;SHT30;58277;47.316;18.908;2023-05-07T02:10:06;14.28;86.38
70708;SHT30;58277;47.316;18.908;2023-05-07T02:12:29;14.23;86.27
70708;SHT30;58277;47.316;18.908;2023-05-07T02:14:52;14.09;86.63
70708;SHT30;58277;47.316;18.908;2023-05-07T02:17:15;14.13;86.57
70708;SHT30;58277;47.316;18.908;2023-05-07T02:19:38;14.04;86.72
70708;SHT30;58277;47.316;18.908;2023-05-07T02:22:00;14.00;86.76
70708;SHT30;58277;47.316;18.908;2023-05-07T02:24:25;13.95;86.64
70708;SHT30;58277;47.316;18.908;2023-05-07T02:26:48;14.02;86.83
70708;SHT30;58277;47.316;18.908;2023-05-07T02:29:10;14.08;87.11
70708;SHT30;58277;47.316;18.908;2023-05-07T02:31:34;14.09;86.92
70708;SHT30;58277;47.316;18.908;2023-05-07T02:33:57;14.12;86.79
70708;SHT30;58277;47.316;18.908;2023-05-07T02:36:19;14.16;86.81
70708;SHT30;58277;47.316;18.908;2023-05-07T02:38:48;14.25;86.68
70708;SHT30;58277;47.316;18.908;2023-05-07T02:41:11;14.36;86.62
70708;SHT30;58277;47.316;18.908;2023-05-07T02:43:34;14.46;86.04
70708;SHT30;58277;47.316;18.908;2023-05-07T02:46:04;14.36;86.25
70708;SHT30;58277;47.316;18.908;2023-05-07T02:48:30;14.19;86.65
70708;SHT30;58277;47.316;18.908;2023-05-07T02:50:53;14.20;86.50
70708;SHT30;58277;47.316;18.908;2023-05-07T02:53:16;14.15;86.56
70708;SHT30;58277;47.316;18.908;2023-05-07T02:55:38;14.11;86.79
70708;SHT30;58277;47.316;18.908;2023-05-07T02:58:01;14.18;86.31
70708;SHT30;58277;47.316;18.908;2023-05-07T03:00:27;14.18;86.39
70708;SHT30;58277;47.316;18.908;2023-05-07T03:03:00;14.18;86.45
70708;SHT30;58277;47.316;18.908;2023-05-07T03:05:24;14.12;86.73
70708;SHT30;58277;47.316;18.908;2023-05-07T03:07:46;14.23;86.70
70708;SHT30;58277;47.316;18.908;2023-05-07T03:10:10;14.20;86.50
70708;SHT30;58277;47.316;18.908;2023-05-07T03:12:33;14.13;86.95
70708;SHT30;58277;47.316;18.908;2023-05-07T03:14:56;14.08;87.11
70708;SHT30;58277;47.316;18.908;2023-05-07T03:17:20;14.16;86.89
70708;SHT30;58277;47.316;18.908;2023-05-07T03:19:43;14.12;86.93
70708;SHT30;58277;47.316;18.908;2023-05-07T03:22:06;14.11;87.06
70708;SHT30;58277;47.316;18.908;2023-05-07T03:24:28;14.15;86.91
70708;SHT30;58277;47.316;18.908;2023-05-07T03:26:51;14.13;87.02
70708;SHT30;58277;47.316;18.908;2023-05-07T03:29:14;14.13;86.92
70708;SHT30;58277;47.316;18.908;2023-05-07T03:31:37;14.19;86.89
70708;SHT30;58277;47.316;18.908;2023-05-07T03:34:00;14.18;86.85
70708;SHT30;58277;47.316;18.908;2023-05-07T03:36:23;14.20;86.74
70708;SHT30;58277;47.316;18.908;2023-05-07T03:38:48;14.23;86.87
70708;SHT30;58277;47.316;18.908;2023-05-07T03:41:14;14.33;86.51
70708;SHT30;58277;47.316;18.908;2023-05-07T03:43:39;14.28;86.49
70708;SHT30;58277;47.316;18.908;2023-05-07T03:46:05;14.30;86.21
70708;SHT30;58277;47.316;18.908;2023-05-07T03:48:28;14.32;86.26
70708;SHT30;58277;47.316;18.908;2023-05-07T03:50:52;14.39;86.05
70708;SHT30;58277;47.316;18.908;2023-05-07T03:53:16;14.40;86.01
70708;SHT30;58277;47.316;18.908;2023-05-07T03:55:39;14.43;86.02
70708;SHT30;58277;47.316;18.908;2023-05-07T03:58:02;14.51;85.51
70708;SHT30;58277;47.316;18.908;2023-05-07T04:00:25;14.53;85.81
70708;SHT30;58277;47.316;18.908;2023-05-07T04:02:48;14.47;85.58
70708;SHT30;58277;47.316;18.908;2023-05-07T04:05:17;14.64;85.28
70708;SHT30;58277;47.316;18.908;2023-05-07T04:07:43;14.60;85.32
70708;SHT30;58277;47.316;18.908;2023-05-07T04:10:08;14.74;85.13
70708;SHT30;58277;47.316;18.908;2023-05-07T04:12:35;14.94;84.57
70708;SHT30;58277;47.316;18.908;2023-05-07T04:14:57;15.09;84.27
70708;SHT30;58277;47.316;18.908;2023-05-07T04:17:20;15.09;83.85
70708;SHT30;58277;47.316;18.908;2023-05-07T04:19:43;15.56;83.24
70708;SHT30;58277;47.316;18.908;2023-05-07T04:22:09;16.12;81.84
70708;SHT30;58277;47.316;18.908;2023-05-07T04:24:32;16.76;79.99
70708;SHT30;58277;47.316;18.908;2023-05-07T04:26:58;17.32;78.09
70708;SHT30;58277;47.316;18.908;2023-05-07T04:29:21;17.71;76.48
70708;SHT30;58277;47.316;18.908;2023-05-07T04:31:44;18.06;74.79
70708;SHT30;58277;47.316;18.908;2023-05-07T04:34:08;18.59;73.25
70708;SHT30;58277;47.316;18.908;2023-05-07T04:36:31;18.98;72.16
70708;SHT30;58277;47.316;18.908;2023-05-07T04:38:59;18.92;71.78
70708;SHT30;58277;47.316;18.908;2023-05-07T04:41:22;18.68;72.25
70708;SHT30;58277;47.316;18.908;2023-05-07T04:43:45;18.51;72.97
70708;SHT30;58277;47.316;18.908;2023-05-07T04:46:10;18.38;73.91
70708;SHT30;58277;47.316;18.908;2023-05-07T04:48:32;18.23;74.35
70708;SHT30;58277;47.316;18.908;2023-05-07T04:50:57;18.09;74.79
70708;SHT30;58277;47.316;18.908;2023-05-07T04:53:20;17.85;75.68
70708;SHT30;58277;47.316;18.908;2023-05-07T04:55:45;17.63;76.33
70708;SHT30;58277;47.316;18.908;2023-05-07T04:58:08;17.51;76.60
70708;SHT30;58277;47.316;18.908;2023-05-07T05:00:33;17.28;77.02
70708;SHT30;58277;47.316;18.908;2023-05-07T05:02:59;17.23;77.80
70708;SHT30;58277;47.316;18.908;2023-05-07T05:05:23;17.10;78.22
70708;SHT30;58277;47.316;18.908;2023-05-07T05:07:48;17.10;77.99
70708;SHT30;58277;47.316;18.908;2023-05-07T05:10:11;17.31;77.81
70708;SHT30;58277;47.316;18.908;2023-05-07T05:12:36;17.17;77.09
70708;SHT30;58277;47.316;18.908;2023-05-07T05:14:59;17.28;76.51
70708;SHT30;58277;47.316;18.908;2023-05-07T05:17:21;17.42;76.66
70708;SHT30;58277;47.316;18.908;2023-05-07T05:19:44;17.78;75.63
70708;SHT30;58277;47.316;18.908;2023-05-07T05:22:07;18.06;75.90
70708;SHT30;58277;47.316;18.908;2023-05-07T05:24:31;18.43;75.12
70708;SHT30;58277;47.316;18.908;2023-05-07T05:26:53;18.64;74.75
70708;SHT30;58277;47.316;18.908;2023-05-07T05:29:17;18.96;74.06
70708;SHT30;58277;47.316;18.908;2023-05-07T05:31:40;18.99;74.09
70708;SHT30;58277;47.316;18.908;2023-05-07T05:34:05;18.99;72.94
70708;SHT30;58277;47.316;18.908;2023-05-07T05:36:28;19.09;72.62
70708;SHT30;58277;47.316;18.908;2023-05-07T05:38:52;19.13;71.07
70708;SHT30;58277;47.316;18.908;2023-05-07T05:41:16;19.64;71.41
70708;SHT30;58277;47.316;18.908;2023-05-07T05:43:39;20.10;69.44
70708;SHT30;58277;47.316;18.908;2023-05-07T05:46:02;20.53;67.79
70708;SHT30;58277;47.316;18.908;2023-05-07T05:48:28;20.16;68.19
70708;SHT30;58277;47.316;18.908;2023-05-07T05:50:51;20.37;69.11
70708;SHT30;58277;47.316;18.908;2023-05-07T05:53:14;20.43;68.67
70708;SHT30;58277;47.316;18.908;2023-05-07T05:55:38;20.54;68.43
70708;SHT30;58277;47.316;18.908;2023-05-07T05:58:01;20.54;68.18
70708;SHT30;58277;47.316;18.908;2023-05-07T06:00:26;20.27;68.59
70708;SHT30;58277;47.316;18.908;2023-05-07T06:02:57;20.25;68.83
70708;SHT30;58277;47.316;18.908;2023-05-07T06:05:21;20.32;68.96
70708;SHT30;58277;47.316;18.908;2023-05-07T06:07:47;19.99;69.17
70708;SHT30;58277;47.316;18.908;2023-05-07T06:10:10;20.23;69.08
70708;SHT30;58277;47.316;18.908;2023-05-07T06:12:33;20.20;66.96
70708;SHT30;58277;47.316;18.908;2023-05-07T06:14:56;19.89;69.11
70708;SHT30;58277;47.316;18.908;2023-05-07T06:17:19;20.22;68.60
70708;SHT30;58277;47.316;18.908;2023-05-07T06:19:45;19.93;69.35
70708;SHT30;58277;47.316;18.908;2023-05-07T06:22:08;20.19;68.61
70708;SHT30;58277;47.316;18.908;2023-05-07T06:24:32;20.58;67.13
70708;SHT30;58277;47.316;18.908;2023-05-07T06:26:54;20.16;67.69
70708;SHT30;58277;47.316;18.908;2023-05-07T06:29:38;20.47;65.73
70708;SHT30;58277;47.316;18.908;2023-05-07T06:32:21;20.56;65.14
70708;SHT30;58277;47.316;18.908;2023-05-07T06:34:45;21.02;65.22
70708;SHT30;58277;47.316;18.908;2023-05-07T06:37:09;21.26;64.83
70708;SHT30;58277;47.316;18.908;2023-05-07T06:39:52;21.30;62.48
70708;SHT30;58277;47.316;18.908;2023-05-07T06:42:15;21.40;62.14
70708;SHT30;58277;47.316;18.908;2023-05-07T06:44:41;21.57;62.12
70708;SHT30;58277;47.316;18.908;2023-05-07T06:47:07;21.23;64.07
70708;SHT30;58277;47.316;18.908;2023-05-07T06:49:33;21.16;62.86
70708;SHT30;58277;47.316;18.908;2023-05-07T06:51:56;21.47;62.64
70708;SHT30;58277;47.316;18.908;2023-05-07T06:54:19;21.49;62.37
70708;SHT30;58277;47.316;18.908;2023-05-07T06:56:43;21.67;61.82
70708;SHT30;58277;47.316;18.908;2023-05-07T06:59:06;22.09;61.18
70708;SHT30;58277;47.316;18.908;2023-05-07T07:01:33;22.41;61.36
70708;SHT30;58277;47.316;18.908;2023-05-07T07:03:57;22.82;60.00
70708;SHT30;58277;47.316;18.908;2023-05-07T07:06:21;23.06;56.58
70708;SHT30;58277;47.316;18.908;2023-05-07T07:08:44;23.22;55.64
70708;SHT30;58277;47.316;18.908;2023-05-07T07:11:10;23.32;55.28
70708;SHT30;58277;47.316;18.908;2023-05-07T07:13:32;23.11;55.50
70708;SHT30;58277;47.316;18.908;2023-05-07T07:15:55;22.77;57.09
70708;SHT30;58277;47.316;18.908;2023-05-07T07:18:18;23.04;57.62
70708;SHT30;58277;47.316;18.908;2023-05-07T07:20:43;22.94;58.39
70708;SHT30;58277;47.316;18.908;2023-05-07T07:23:07;23.17;58.85
70708;SHT30;58277;47.316;18.908;2023-05-07T07:25:29;23.01;59.07
70708;SHT30;58277;47.316;18.908;2023-05-07T07:27:52;22.90;58.95
70708;SHT30;58277;47.316;18.908;2023-05-07T07:30:16;22.84;59.47
70708;SHT30;58277;47.316;18.908;2023-05-07T07:32:43;22.56;59.91
70708;SHT30;58277;47.316;18.908;2023-05-07T07:35:06;22.38;59.91
70708;SHT30;58277;47.316;18.908;2023-05-07T07:37:30;22.21;60.64
70708;SHT30;58277;47.316;18.908;2023-05-07T07:39:53;22.21;61.26
70708;SHT30;58277;47.316;18.908;2023-05-07T07:42:17;22.15;62.46
70708;SHT30;58277;47.316;18.908;2023-05-07T07:44:41;21.83;62.06
70708;SHT30;58277;47.316;18.908;2023-05-07T07:47:05;21.60;62.87
70708;SHT30;58277;47.316;18.908;2023-05-07T07:49:29;21.78;63.40
70708;SHT30;58277;47.316;18.908;2023-05-07T07:51:54;21.70;62.92
70708;SHT30;58277;47.316;18.908;2023-05-07T07:54:19;21.80;61.76
70708;SHT30;58277;47.316;18.908;2023-05-07T07:56:42;22.05;62.68
70708;SHT30;58277;47.316;18.908;2023-05-07T07:59:07;22.21;62.66
70708;SHT30;58277;47.316;18.908;2023-05-07T08:01:32;21.98;63.38
70708;SHT30;58277;47.316;18.908;2023-05-07T08:03:56;21.77;64.79
70708;SHT30;58277;47.316;18.908;2023-05-07T08:06:22;21.56;65.04
70708;SHT30;58277;47.316;18.908;2023-05-07T08:08:45;21.66;65.22
70708;SHT30;58277;47.316;18.908;2023-05-07T08:11:10;21.83;65.33
70708;SHT30;58277;47.316;18.908;2023-05-07T08:13:33;21.93;64.94
70708;SHT30;58277;47.316;18.908;2023-05-07T08:15:55;22.04;63.96
70708;SHT30;58277;47.316;18.908;2023-05-07T08:18:19;21.94;64.11
70708;SHT30;58277;47.316;18.908;2023-05-07T08:20:43;21.77;64.32
70708;SHT30;58277;47.316;18.908;2023-05-07T08:23:10;21.67;64.34
70708;SHT30;58277;47.316;18.908;2023-05-07T08:25:34;21.71;64.48
70708;SHT30;58277;47.316;18.908;2023-05-07T08:28:09;21.57;64.40
70708;SHT30;58277;47.316;18.908;2023-05-07T08:30:33;21.83;64.11
70708;SHT30;58277;47.316;18.908;2023-05-07T08:32:56;22.00;63.60
70708;SHT30;58277;47.316;18.908;2023-05-07T08:35:19;22.07;63.17
70708;SHT30;58277;47.316;18.908;2023-05-07T08:37:41;22.38;63.01
70708;SHT30;58277;47.316;18.908;2023-05-07T08:40:05;22.62;62.83
70708;SHT30;58277;47.316;18.908;2023-05-07T08:42:35;22.77;62.33
70708;SHT30;58277;47.316;18.908;2023-05-07T08:44:59;23.04;62.33
70708;SHT30;58277;47.316;18.908;2023-05-07T08:47:25;23.15;61.93
70708;SHT30;58277;47.316;18.908;2023-05-07T08:49:54;23.25;62.27
70708;SHT30;58277;47.316;18.908;2023-05-07T08:52:18;23.10;61.45
70708;SHT30;58277;47.316;18.908;2023-05-07T08:54:43;23.04;62.62
70708;SHT30;58277;47.316;18.908;2023-05-07T08:57:06;22.96;61.25
70708;SHT30;58277;47.316;18.908;2023-05-07T08:59:30;23.00;60.92
70708;SHT30;58277;47.316;18.908;2023-05-07T09:01:53;22.94;60.98
70708;SHT30;58277;47.316;18.908;2023-05-07T09:04:16;22.80;61.76
70708;SHT30;58277;47.316;18.908;2023-05-07T09:06:40;22.48;62.82
70708;SHT30;58277;47.316;18.908;2023-05-07T09:09:06;22.53;62.48
70708;SHT30;58277;47.316;18.908;2023-05-07T09:11:29;22.52;63.75
70708;SHT30;58277;47.316;18.908;2023-05-07T09:13:56;22.59;63.37
70708;SHT30;58277;47.316;18.908;2023-05-07T09:16:21;22.79;63.29
70708;SHT30;58277;47.316;18.908;2023-05-07T09:18:45;22.64;63.35
70708;SHT30;58277;47.316;18.908;2023-05-07T09:21:11;22.79;62.49
70708;SHT30;58277;47.316;18.908;2023-05-07T09:23:34;22.79;62.13
70708;SHT30;58277;47.316;18.908;2023-05-07T09:26:00;22.77;62.64
70708;SHT30;58277;47.316;18.908;2023-05-07T09:28:26;22.94;62.02
70708;SHT30;58277;47.316;18.908;2023-05-07T09:30:49;23.37;60.74
70708;SHT30;58277;47.316;18.908;2023-05-07T09:33:12;23.62;59.05
70708;SHT30;58277;47.316;18.908;2023-05-07T09:35:39;23.48;57.58
70708;SHT30;58277;47.316;18.908;2023-05-07T09:38:07;23.56;58.11
70708;SHT30;58277;47.316;18.908;2023-05-07T09:40:31;23.75;56.91
70708;SHT30;58277;47.316;18.908;2023-05-07T09:43:09;23.73;57.28
70708;SHT30;58277;47.316;18.908;2023-05-07T09:45:37;23.75;56.38
70708;SHT30;58277;47.316;18.908;2023-05-07T09:48:04;23.80;55.48
70708;SHT30;58277;47.316;18.908;2023-05-07T09:50:30;23.69;56.27
70708;SHT30;58277;47.316;18.908;2023-05-07T09:52:56;23.56;56.54
70708;SHT30;58277;47.316;18.908;2023-05-07T09:55:20;23.37;56.08
70708;SHT30;58277;47.316;18.908;2023-05-07T09:57:43;23.01;57.63
70708;SHT30;58277;47.316;18.908;2023-05-07T10:00:07;22.80;58.35
70708;SHT30;58277;47.316;18.908;2023-05-07T10:02:45;22.63;58.97
70708;SHT30;58277;47.316;18.908;2023-05-07T10:05:14;22.28;59.66
70708;SHT30;58277;47.316;18.908;2023-05-07T10:07:37;22.01;61.09
70708;SHT30;58277;47.316;18.908;2023-05-07T10:10:04;21.97;61.33
70708;SHT30;58277;47.316;18.908;2023-05-07T10:12:32;21.91;61.62
70708;SHT30;58277;47.316;18.908;2023-05-07T10:15:09;21.94;62.13
70708;SHT30;58277;47.316;18.908;2023-05-07T10:17:38;21.97;62.45
70708;SHT30;58277;47.316;18.908;2023-05-07T10:20:06;21.66;62.52
70708;SHT30;58277;47.316;18.908;2023-05-07T10:22:41;21.71;63.50
70708;SHT30;58277;47.316;18.908;2023-05-07T10:25:14;21.80;63.23
70708;SHT30;58277;47.316;18.908;2023-05-07T10:27:40;21.93;63.14
70708;SHT30;58277;47.316;18.908;2023-05-07T10:30:38;22.02;63.23
70708;SHT30;58277;47.316;18.908;2023-05-07T10:33:05;22.19;63.05
70708;SHT30;58277;47.316;18.908;2023-05-07T10:35:36;22.29;63.04
70708;SHT30;58277;47.316;18.908;2023-05-07T10:38:00;22.56;61.91
70708;SHT30;58277;47.316;18.908;2023-05-07T10:40:25;22.96;60.68
70708;SHT30;58277;47.316;18.908;2023-05-07T10:43:05;23.17;60.51
70708;SHT30;58277;47.316;18.908;2023-05-07T10:46:09;23.59;59.15
70708;SHT30;58277;47.316;18.908;2023-05-07T10:48:34;23.86;58.85
70708;SHT30;58277;47.316;18.908;2023-05-07T10:51:19;24.28;58.10
70708;SHT30;58277;47.316;18.908;2023-05-07T10:53:47;24.47;56.34
70708;SHT30;58277;47.316;18.908;2023-05-07T10:56:23;24.34;55.54
70708;SHT30;58277;47.316;18.908;2023-05-07T10:58:55;24.17;54.20
70708;SHT30;58277;47.316;18.908;2023-05-07T11:01:58;24.20;54.38
70708;SHT30;58277;47.316;18.908;2023-05-07T11:04:29;24.52;54.73
70708;SHT30;58277;47.316;18.908;2023-05-07T11:07:28;24.69;55.03
70708;SHT30;58277;47.316;18.908;2023-05-07T11:10:00;24.86;54.95
70708;SHT30;58277;47.316;18.908;2023-05-07T11:17:34;24.52;56.06
70708;SHT30;58277;47.316;18.908;2023-05-07T11:20:02;24.62;55.71
70708;SHT30;58277;47.316;18.908;2023-05-07T11:25:06;24.62;51.58
70708;SHT30;58277;47.316;18.908;2023-05-07T11:27:29;24.52;49.41
70708;SHT30;58277;47.316;18.908;2023-05-07T11:29:55;24.99;49.89
70708;SHT30;58277;47.316;18.908;2023-05-07T11:32:26;25.23;46.76
70708;SHT30;58277;47.316;18.908;2023-05-07T11:34:56;25.73;45.46
70708;SHT30;58277;47.316;18.908;2023-05-07T11:37:21;25.57;45.35
70708;SHT30;58277;47.316;18.908;2023-05-07T11:39:49;25.81;45.57
70708;SHT30;58277;47.316;18.908;2023-05-07T11:44:49;25.28;44.19
70708;SHT30;58277;47.316;18.908;2023-05-07T11:47:17;25.63;45.36
70708;SHT30;58277;47.316;18.908;2023-05-07T11:49:40;25.73;44.48
70708;SHT30;58277;47.316;18.908;2023-05-07T11:52:03;25.47;45.00
70708;SHT30;58277;47.316;18.908;2023-05-07T11:54:35;25.15;44.08
70708;SHT30;58277;47.316;18.908;2023-05-07T11:56:59;25.30;44.87
70708;SHT30;58277;47.316;18.908;2023-05-07T11:59:22;25.40;44.52
70708;SHT30;58277;47.316;18.908;2023-05-07T12:01:47;25.06;44.40
70708;SHT30;58277;47.316;18.908;2023-05-07T12:04:10;24.92;44.40
70708;SHT30;58277;47.316;18.908;2023-05-07T12:06:36;24.78;44.51
70708;SHT30;58277;47.316;18.908;2023-05-07T12:08:59;24.81;44.92
70708;SHT30;58277;47.316;18.908;2023-05-07T12:11:24;24.81;44.54
70708;SHT30;58277;47.316;18.908;2023-05-07T12:13:48;24.82;44.49
70708;SHT30;58277;47.316;18.908;2023-05-07T12:16:10;24.68;45.21
70708;SHT30;58277;47.316;18.908;2023-05-07T12:18:34;24.35;43.99
70708;SHT30;58277;47.316;18.908;2023-05-07T12:20:58;24.40;44.89
70708;SHT30;58277;47.316;18.908;2023-05-07T12:23:22;24.40;45.11
70708;SHT30;58277;47.316;18.908;2023-05-07T12:25:44;24.48;44.74
70708;SHT30;58277;47.316;18.908;2023-05-07T12:28:13;24.44;45.47
70708;SHT30;58277;47.316;18.908;2023-05-07T12:30:39;24.33;46.12
70708;SHT30;58277;47.316;18.908;2023-05-07T12:33:02;24.28;44.61
70708;SHT30;58277;47.316;18.908;2023-05-07T12:35:29;24.45;46.17
70708;SHT30;58277;47.316;18.908;2023-05-07T12:37:58;24.61;46.13
70708;SHT30;58277;47.316;18.908;2023-05-07T12:40:22;24.64;45.25
70708;SHT30;58277;47.316;18.908;2023-05-07T12:42:45;24.60;46.43
70708;SHT30;58277;47.316;18.908;2023-05-07T12:45:11;24.40;48.28
70708;SHT30;58277;47.316;18.908;2023-05-07T12:47:35;24.06;47.68
70708;SHT30;58277;47.316;18.908;2023-05-07T12:49:59;24.30;48.13
70708;SHT30;58277;47.316;18.908;2023-05-07T12:52:22;24.24;48.87
70708;SHT30;58277;47.316;18.908;2023-05-07T12:54:44;24.25;48.88
70708;SHT30;58277;47.316;18.908;2023-05-07T12:57:09;23.87;49.22
70708;SHT30;58277;47.316;18.908;2023-05-07T12:59:40;24.02;47.45
70708;SHT30;58277;47.316;18.908;2023-05-07T13:02:04;23.94;48.64
70708;SHT30;58277;47.316;18.908;2023-05-07T13:04:27;24.12;48.95
70708;SHT30;58277;47.316;18.908;2023-05-07T13:06:50;24.18;48.78
70708;SHT30;58277;47.316;18.908;2023-05-07T13:09:13;24.42;48.11
70708;SHT30;58277;47.316;18.908;2023-05-07T13:11:36;24.60;47.79
70708;SHT30;58277;47.316;18.908;2023-05-07T13:13:58;24.60;48.68
70708;SHT30;58277;47.316;18.908;2023-05-07T13:16:21;24.37;46.99
70708;SHT30;58277;47.316;18.908;2023-05-07T13:18:44;24.30;47.34
70708;SHT30;58277;47.316;18.908;2023-05-07T13:21:08;24.03;49.55
70708;SHT30;58277;47.316;18.908;2023-05-07T13:23:32;23.83;50.05
70708;SHT30;58277;47.316;18.908;2023-05-07T13:25:55;23.63;50.80
70708;SHT30;58277;47.316;18.908;2023-05-07T13:28:18;23.47;51.31
70708;SHT30;58277;47.316;18.908;2023-05-07T13:30:41;23.69;51.53
70708;SHT30;58277;47.316;18.908;2023-05-07T13:33:04;23.80;51.45
70708;SHT30;58277;47.316;18.908;2023-05-07T13:35:27;23.94;48.46
70708;SHT30;58277;47.316;18.908;2023-05-07T13:37:50;24.00;47.29
70708;SHT30;58277;47.316;18.908;2023-05-07T13:40:14;24.24;48.41
70708;SHT30;58277;47.316;18.908;2023-05-07T13:42:37;24.48;46.02
70708;SHT30;58277;47.316;18.908;2023-05-07T13:45:00;24.64;45.13
70708;SHT30;58277;47.316;18.908;2023-05-07T13:47:24;24.65;44.73
70708;SHT30;58277;47.316;18.908;2023-05-07T13:49:47;24.69;45.28
70708;SHT30;58277;47.316;18.908;2023-05-07T13:52:11;24.60;45.13
70708;SHT30;58277;47.316;18.908;2023-05-07T13:54:34;24.51;45.37
70708;SHT30;58277;47.316;18.908;2023-05-07T13:56:57;24.38;45.72
70708;SHT30;58277;47.316;18.908;2023-05-07T13:59:20;24.33;46.44
70708;SHT30;58277;47.316;18.908;2023-05-07T14:01:43;24.40;46.97
70708;SHT30;58277;47.316;18.908;2023-05-07T14:04:05;24.21;47.87
70708;SHT30;58277;47.316;18.908;2023-05-07T14:06:28;24.07;48.85
70708;SHT30;58277;47.316;18.908;2023-05-07T14:08:51;24.12;48.42
70708;SHT30;58277;47.316;18.908;2023-05-07T14:11:14;24.18;47.48
70708;SHT30;58277;47.316;18.908;2023-05-07T14:13:37;24.28;47.00
70708;SHT30;58277;47.316;18.908;2023-05-07T14:16:00;24.27;46.63
70708;SHT30;58277;47.316;18.908;2023-05-07T14:18:23;24.25;46.93
70708;SHT30;58277;47.316;18.908;2023-05-07T14:20:45;24.40;48.37
70708;SHT30;58277;47.316;18.908;2023-05-07T14:23:10;24.34;48.14
70708;SHT30;58277;47.316;18.908;2023-05-07T14:25:33;24.24;47.27
70708;SHT30;58277;47.316;18.908;2023-05-07T14:27:56;24.41;46.79
70708;SHT30;58277;47.316;18.908;2023-05-07T14:30:19;24.27;44.04
70708;SHT30;58277;47.316;18.908;2023-05-07T14:32:42;24.24;45.33
70708;SHT30;58277;47.316;18.908;2023-05-07T14:35:06;24.18;45.05
70708;SHT30;58277;47.316;18.908;2023-05-07T14:37:29;24.13;45.14
70708;SHT30;58277;47.316;18.908;2023-05-07T14:39:51;23.97;45.71
70708;SHT30;58277;47.316;18.908;2023-05-07T14:42:14;23.83;46.37
70708;SHT30;58277;47.316;18.908;2023-05-07T14:44:37;24.00;46.63
70708;SHT30;58277;47.316;18.908;2023-05-07T14:47:02;24.00;46.76
70708;SHT30;58277;47.316;18.908;2023-05-07T14:49:25;23.99;46.72
70708;SHT30;58277;47.316;18.908;2023-05-07T14:51:48;23.99;47.14
70708;SHT30;58277;47.316;18.908;2023-05-07T14:54:12;24.14;45.22
70708;SHT30;58277;47.316;18.908;2023-05-07T14:56:35;23.93;45.39
70708;SHT30;58277;47.316;18.908;2023-05-07T14:58:58;23.89;45.44
70708;SHT30;58277;47.316;18.908;2023-05-07T15:01:20;23.96;45.42
70708;SHT30;58277;47.316;18.908;2023-05-07T15:03:44;23.86;47.15
70708;SHT30;58277;47.316;18.908;2023-05-07T15:06:07;23.99;47.40
70708;SHT30;58277;47.316;18.908;2023-05-07T15:08:30;23.85;47.77
70708;SHT30;58277;47.316;18.908;2023-05-07T15:10:53;23.49;48.40